This is the latest recevied weather packets stored in our database for station/object W4RJG. If no packets are shown the sender has not sent any weather packets the latest 10 day(s).
| Time | Temp. | Humidity | Pressure | Rain* | Wind** | Luminosity | Snow |
|---|---|---|---|---|---|---|---|
| 1777644605 | 13.89° C | 64% | 1005.8 hPa | 0 mm | - | 0 W/m² | - |
| 1777639205 | 8.89° C | 91% | 1006.1 hPa | 0 mm | - | 0 W/m² | - |
| 1777634404 | 5.56° C | 94% | 1005.7 hPa | 0 mm | - | 0 W/m² | - |
| 1777633204 | 5° C | 94% | 1005.4 hPa | 0 mm | - | 0 W/m² | - |
| 1777631405 | 5° C | 94% | 1005.1 hPa | 0 mm | - | 0 W/m² | - |
| 1777628404 | 5.56° C | 93% | 1005.1 hPa | 0 mm | - | 0 W/m² | - |
| 1777626004 | 5° C | 92% | 1005.1 hPa | 0 mm | - | 0 W/m² | - |
| 1777621205 | 5.56° C | 90% | 1004.7 hPa | 0 mm | - | 0 W/m² | - |
| 1777618805 | 6.67° C | 89% | 1004.7 hPa | 0 mm | - | 0 W/m² | - |
| 1777608004 | 10° C | 75% | 1003 hPa | 0 mm | - | 0 W/m² | - |
| 1777607404 | 10° C | 72% | 1002.7 hPa | 0 mm | - | 0 W/m² | - |
| 1777605004 | 11.11° C | 66% | 1002.7 hPa | 0 mm | - | 0 W/m² | - |
| 1777603204 | 12.22° C | 63% | 1002.7 hPa | 0 mm | - | 0 W/m² | - |
| 1777602004 | 12.78° C | 57% | 1002 hPa | 0 mm | - | 0 W/m² | - |
| 1777599604 | 14.44° C | 56% | 1001.7 hPa | 0 mm | - | 0 W/m² | - |
| 1777591807 | 20° C | 38% | 999.1 hPa | 0 mm | - | 0 W/m² | - |
| 1777590604 | 20.56° C | 39% | 999 hPa | 0 mm | - | 0 W/m² | - |
| 1777582806 | 24.44° C | 37% | 998.3 hPa | 0 mm | - | 0 W/m² | - |
| 1777581606 | 24.44° C | 35% | 998.3 hPa | 0 mm | - | 0 W/m² | - |
| 1777580406 | 24.44° C | 36% | 998.3 hPa | 0 mm | - | 0 W/m² | - |
| 1777576806 | 24.44° C | 39% | 998.6 hPa | 0 mm | - | 0 W/m² | - |
| 1777575605 | 24.44° C | 39% | 998.6 hPa | 0 mm | - | 0 W/m² | - |
| 1777569605 | 23.33° C | 46% | 999 hPa | 0 mm | - | 0 W/m² | - |
| 1777564206 | 20° C | 61% | 1000 hPa | 0 mm | - | 0 W/m² | - |
| 1777562405 | 16.67° C | 82% | 1000.3 hPa | 0 mm | - | 0 W/m² | - |
* Rain latest hour (hover to see other rain measurements)
** Current wind speed in m/s (hover to see current wind gust speed)